Terminal Aerodrome Forecast
Issued by NWS

Home | Current Version | Previous Version | Text Only | Print | Product List | Glossary On
Versions: 1 2 3 4 5 6 7 8 9 10 11 12 13 14 15 16 17 18 19 20 21
000
FTUS45 KSLC 221727
TAF36U
TAF
K36U 221727Z 2218/2318 VRB04KT 5SM -SN BR BKN015 BKN040
     FM222100 23007KT 2SM -SN BR SCT007 BKN012
     FM222300 VRB05KT 3/4SM -SN BR OVC006
     FM230600 VRB03KT 5SM -SN BR BKN011 OVC025=

USA.gov is the U.S. government's official web portal to all federal, state and local government web resources and services.